SCCI 170600Z 29009KT 9999 FEW040 SCT120 BKN200 07/04 Q1000 NOSIG